• Join FlightAware (Why Join?)
  • Login
  • US Flag 
02:25PM EDT


 

Airport Tracker/Info


-or-


 

Live Flight TrackerFlight Track Log ✈ UPS1337 ✈ 12-Mar-2014 ✈ KPIE - KSDF

Flight Track Log - Related Links

Times and Time Zones

All times are in EDT time to prevent confusion due to time zone crossing. See the UPS1337 flight status page for this flight to view local times or setup timezone preferences in your user account.

Time Position Orientation Groundspeed Altitude Reporting Facility
EDT Latitude Longitude Course Direction KTS MPH feet Rate Location/Type
09:40PM 27.9167 -82.6833 360° North 168 193 800  Level Tampa TRACON
09:41PM 27.9667 -82.6833 360° North 193 222 3,400 2,880 Climbing Tampa TRACON
09:43PM 28.1247 -82.7161 350° North 245 282 10,500 2,220 Climbing Jacksonville Center
09:53PM 29.3083 -83.0436 348° North 465 535 32,300 2,040 Climbing FlightAware ADS-B (KMCO)
09:54PM 29.4338 -83.0746 348° North 467 537 33,700 420 Climbing FlightAware ADS-B (KMCO)
09:57PM 29.7871 -83.1609 348° North 382 440 34,000 60 Climbing FlightAware ADS-B (KMCO)
09:59PM 30.0142 -83.2154 348° North 467 537 34,000  Level FlightAware ADS-B (KTLH)
10:00PM 30.1553 -83.2553 348° North 468 539 34,000  Level Jacksonville Center
10:01PM 30.2764 -83.2942 345° North 457 526 34,000 -60 Level Jacksonville Center
10:02PM 30.3994 -83.3333 345° North 457 526 33,900  Descending Jacksonville Center
10:03PM 30.5203 -83.3725 344° North 452 520 34,000  Climbing Jacksonville Center
10:04PM 30.6414 -83.4142 344° North 452 520 34,000  Level Jacksonville Center
10:05PM 30.7642 -83.4558 344° North 452 520 34,000  Level Jacksonville Center
10:06PM 30.8728 -83.4906 345° North 452 520 34,000  Level Jacksonville Center
10:07PM 30.9936 -83.5300 344° North 452 520 34,000  Level Jacksonville Center
10:08PM 31.1144 -83.5697 344° North 452 520 34,000  Level Jacksonville Center
10:09PM 31.2375 -83.6117 344° North 452 520 34,000  Level Jacksonville Center
10:12PM 31.5353 -83.7147 344° North 452 520 34,000  Level Atlanta Center
10:13PM 31.6669 -83.7583 344° North 445 512 34,000  Level Atlanta Center
10:14PM 31.7861 -83.7969 345° North 445 512 34,000  Level Atlanta Center
10:15PM 31.9156 -83.8431 343° North 460 529 34,000  Level Atlanta Center
10:16PM 32.0344 -83.8844 344° North 455 524 34,000  Level Atlanta Center
10:17PM 32.1556 -83.9236 345° North 450 518 34,000  Level Atlanta Center
10:18PM 32.2767 -83.9675 343° North 450 518 34,000  Level Atlanta Center
10:19PM 32.3958 -84.0094 343° North 445 512 34,000  Level Atlanta Center
10:20PM 32.5147 -84.0486 344° North 440 506 34,000  Level Atlanta Center
10:21PM 32.6336 -84.0881 344° North 440 506 34,000  Level Atlanta Center
10:22PM 32.7525 -84.1303 343° North 440 506 34,000  Level Atlanta Center
10:23PM 32.8717 -84.1722 344° North 435 501 34,000  Level Atlanta Center
10:24PM 32.9781 -84.2122 342° North 440 506 34,000  Level Atlanta Center
10:25PM 33.0947 -84.2519 344° North 440 506 34,000  Level Atlanta Center
10:26PM 33.2117 -84.2944 343° North 434 499 34,000  Level Atlanta Center
10:31PM 33.9681 -84.4457 354° North 452 520 34,000  Level FlightAware ADS-B (KDZJ)
10:32PM 34.0581 -84.4576 354° North 454 522 34,000  Level FlightAware ADS-B (KDZJ)
10:33PM 34.1423 -84.4687 354° North 456 525 34,000  Level FlightAware ADS-B (KDZJ)
10:33PM 34.2280 -84.4800 354° North 456 525 34,000  Level FlightAware ADS-B (KDZJ)
10:34PM 34.3126 -84.4911 354° North 452 520 34,000  Level FlightAware ADS-B (KDZJ)
10:35PM 34.3982 -84.5025 354° North 450 518 34,000  Level FlightAware ADS-B (KDZJ)
10:35PM 34.4816 -84.5135 354° North 456 525 34,000  Level FlightAware ADS-B (KDZJ)
10:36PM 34.5654 -84.5247 354° North 452 520 34,000  Level FlightAware ADS-B (KDZJ)
10:37PM 34.6473 -84.5357 354° North 450 518 34,000  Level FlightAware ADS-B (KDZJ)
10:37PM 34.7316 -84.5470 353° North 452 520 34,000  Level FlightAware ADS-B (KDZJ)
10:38PM 34.8165 -84.5587 354° North 457 526 34,000  Level FlightAware ADS-B (KDZJ)
10:39PM 34.8980 -84.5695 354° North 451 519 34,000  Level FlightAware ADS-B (KDZJ)
10:39PM 34.9862 -84.5813 354° North 453 521 34,000  Level FlightAware ADS-B (KDZJ)
10:40PM 35.0698 -84.5925 353° North 455 524 34,000  Level FlightAware ADS-B (KDZJ)
10:41PM 35.1558 -84.6042 354° North 456 525 34,000  Level FlightAware ADS-B (KDZJ)
10:42PM 35.2411 -84.6186 354° North 456 525 34,000  Level Atlanta Center
10:43PM 35.3664 -84.6347 354° North 461 531 34,000  Level Atlanta Center
10:44PM 35.4936 -84.6508 354° North 461 531 34,000  Level Atlanta Center
10:45PM 35.6208 -84.6697 353° North 461 531 34,000  Level Atlanta Center
10:46PM 35.7436 -84.6861 354° North 456 525 34,000 -660 Level Atlanta Center
10:51PM 36.3971 -84.7748 354° North 415 478 29,800 -1,200 Descending FlightAware ADS-B (KBRY)
10:53PM 36.6534 -84.8108 353° North 428 493 24,700 -2,280 Descending FlightAware ADS-B (KBRY)
10:54PM 36.8031 -84.8319 354° North 409 471 22,900 -1,800 Descending FlightAware ADS-B (KBRY)
10:55PM 36.9117 -84.8472 354° North 393 452 21,200 -1,680 Descending FlightAware ADS-B (KBRY)
11:00PM 37.3577 -84.9104 353° North 365 420 14,400 -1,620 Descending FlightAware ADS-B (KBRY)
11:01PM 37.4511 -84.9236 354° North 358 412 12,900 -1,080 Descending FlightAware ADS-B (KBRY)
11:04PM 37.7288 -85.0545 312° West 324 373 9,900 -720 Descending FlightAware ADS-B (KBRY)
11:05PM 37.7804 -85.1361 295° West 265 305 9,900 -780 Level FlightAware ADS-B (KBRY)
11:06PM 37.8017 -85.2202 287° West 241 277 8,400 -1,560 Descending FlightAware ADS-B (KBRY)
11:07PM 37.8013 -85.3067 260° West 251 289 6,800 -1,560 Descending FlightAware ADS-B (KBRY)
11:08PM 37.7892 -85.3906 260° West 246 283 5,300 -1,500 Descending FlightAware ADS-B (KBRY)
11:09PM 37.7904 -85.4680 286° West 232 267 4,000 -660 Descending FlightAware ADS-B (KBRY)
11:10PM 37.8412 -85.5521 309° West 230 265 3,900 -60 Descending FlightAware ADS-B (KBRY)
11:11PM 37.8761 -85.6067 309° West 205 236 3,900  Level FlightAware ADS-B
11:12PM 37.9004 -85.6452 309° West 176 203 3,900 -300 Level FlightAware ADS-B
11:12PM 37.9116 -85.6581 344° North 174 200 3,600 -660 Descending FlightAware ADS-B (KBRY)
11:13PM 37.9587 -85.6727 345° North 156 180 3,000 -360 Descending FlightAware ADS-B (KBRY)
11:14PM 38.0018 -85.6870 346° North 157 181 2,900 -120 Descending FlightAware ADS-B (KBRY)
11:15PM 38.0410 -85.7009 347° North 134 154 2,800 -420 Descending FlightAware ADS-B (KBRY)
11:16PM 38.0769 -85.7125 344° North 115 132 2,100 -540 Descending FlightAware ADS-B (KBRY)
11:17PM 38.1000 -85.7167 208° Southwest 114 131 1,900 -660 Descending Louisville TRACON
11:17PM 38.1072 -85.7225 344° North 114 131 1,500 -780 Descending FlightAware ADS-B (KBRY)
11:18PM 38.1113 -85.7239 346° North 117 135 1,100 -720 Descending FlightAware ADS-B (KBRY)
11:19PM 38.1741 -85.7365 211° Southwest  Level Estimated
11:22PM 38.1667 -85.7333 208° Southwest  Level FlightAware Approximate
11:26PM 38.1741 -85.7365 208° Southwest  Level Estimated